createdAt,value
2022-09-20T00:02:15.935Z,97.78
2022-09-20T00:05:01.129Z,98.45
2022-09-20T00:07:46.583Z,97.81
2022-09-20T00:10:36.041Z,97.54
2022-09-20T00:13:21.380Z,97.36
2022-09-20T00:16:12.580Z,97.76
2022-09-20T00:18:59.593Z,97.25
2022-09-20T00:21:44.592Z,96.95
2022-09-20T00:24:30.076Z,96.84
2022-09-20T00:27:15.274Z,96.43
2022-09-20T00:32:45.906Z,96.63
2022-09-20T00:35:31.117Z,96.87
2022-09-20T00:38:16.802Z,96.82
2022-09-20T00:41:02.176Z,96.74
2022-09-20T00:43:47.550Z,96.63
2022-09-20T00:46:39.300Z,96.81
2022-09-20T00:49:28.396Z,97.12
2022-09-20T00:52:14.598Z,96.93
2022-09-20T00:55:00.830Z,96.68
2022-09-20T00:57:47.018Z,96.21
2022-09-20T01:00:32.739Z,95.79
2022-09-20T01:03:22.731Z,96.07
2022-09-20T01:06:11.322Z,96.60
2022-09-20T01:09:02.462Z,96.52
2022-09-20T01:11:49.484Z,96.17
2022-09-20T01:14:35.209Z,96.46
2022-09-20T01:17:24.827Z,96.65
2022-09-20T01:20:28.500Z,96.13
2022-09-20T01:23:29.126Z,95.93
2022-09-20T01:26:29.439Z,95.98
2022-09-20T01:29:40.051Z,95.80
2022-09-20T01:32:41.961Z,96.42
2022-09-20T01:35:28.726Z,96.34
2022-09-20T01:38:27.397Z,96.31
2022-09-20T01:41:24.296Z,95.90
2022-09-20T01:44:14.218Z,96.02
2022-09-20T01:47:38.628Z,96.48
2022-09-20T01:50:30.264Z,96.83
2022-09-20T01:53:46.287Z,97.44
2022-09-20T01:56:54.474Z,97.76
2022-09-20T02:00:09.136Z,98.22
2022-09-20T02:03:12.407Z,98.19
2022-09-20T02:06:33.826Z,97.78
2022-09-20T02:09:44.131Z,97.10
2022-09-20T02:13:11.572Z,97.07
2022-09-20T02:16:06.308Z,96.66
2022-09-20T02:19:28.887Z,96.79
2022-09-20T02:22:53.078Z,96.84
2022-09-20T02:26:02.770Z,96.50
2022-09-20T02:28:49.377Z,96.01
2022-09-20T02:31:49.602Z,96.10
2022-09-20T02:34:45.910Z,96.01
2022-09-20T02:38:11.388Z,96.32
2022-09-20T02:40:56.670Z,95.89
2022-09-20T02:44:02.178Z,95.76
2022-09-20T02:47:15.045Z,95.36
2022-09-20T02:50:26.737Z,95.50
2022-09-20T02:53:27.436Z,95.46
2022-09-20T02:56:24.879Z,95.62
2022-09-20T02:59:32.321Z,95.45
2022-09-20T03:02:30.365Z,95.35
2022-09-20T03:05:25.045Z,94.72
2022-09-20T03:08:35.800Z,94.80
2022-09-20T03:11:36.015Z,95.11
2022-09-20T03:14:30.016Z,95.05
2022-09-20T03:17:42.390Z,95.04
2022-09-20T03:20:57.882Z,95.00
2022-09-20T03:24:24.947Z,94.88
2022-09-20T03:27:32.704Z,94.98
2022-09-20T03:30:46.319Z,95.07
2022-09-20T03:34:13.568Z,94.82
2022-09-20T03:37:21.818Z,94.75
2022-09-20T03:40:55.583Z,94.75
2022-09-20T03:43:44.015Z,95.02
2022-09-20T03:46:38.897Z,95.43
2022-09-20T03:49:55.693Z,95.58
2022-09-20T03:52:45.306Z,95.50
2022-09-20T03:55:49.282Z,95.62
2022-09-20T03:58:53.527Z,95.50
2022-09-20T04:01:45.274Z,95.46
2022-09-20T04:04:49.860Z,95.85
2022-09-20T04:07:59.285Z,96.29
2022-09-20T04:11:08.092Z,96.20
2022-09-20T04:14:11.238Z,96.42
2022-09-20T04:17:22.166Z,96.62
2022-09-20T04:20:21.258Z,96.73
2022-09-20T04:23:31.109Z,97.03
2022-09-20T04:26:24.561Z,97.74
2022-09-20T04:29:19.878Z,97.74
2022-09-20T04:32:33.635Z,97.88
2022-09-20T04:36:01.946Z,97.89
2022-09-20T04:38:56.678Z,97.79
2022-09-20T04:42:12.446Z,97.74
2022-09-20T04:45:10.373Z,97.71
2022-09-20T04:48:33.332Z,97.64
2022-09-20T04:52:10.187Z,97.93
2022-09-20T04:55:24.811Z,97.66
2022-09-20T04:58:19.181Z,97.78
2022-09-20T05:01:17.204Z,97.60
2022-09-20T05:04:31.563Z,97.00
2022-09-20T05:07:38.618Z,96.80
2022-09-20T05:11:11.238Z,96.55
2022-09-20T05:14:13.629Z,96.23
2022-09-20T05:17:30.893Z,96.00
2022-09-20T05:20:44.283Z,96.37
2022-09-20T05:24:09.468Z,96.36
2022-09-20T05:27:19.576Z,95.71
2022-09-20T05:30:12.778Z,95.87
2022-09-20T05:33:12.770Z,95.62
2022-09-20T05:36:03.996Z,94.83
2022-09-20T05:39:03.456Z,94.23
2022-09-20T05:42:00.177Z,93.72
2022-09-20T05:44:58.011Z,92.79
2022-09-20T05:48:05.433Z,92.23
2022-09-20T05:51:16.446Z,91.27
2022-09-20T05:54:39.430Z,91.06
2022-09-20T05:57:56.393Z,90.22
2022-09-20T06:01:07.081Z,89.92
2022-09-20T06:04:01.348Z,89.46
2022-09-20T06:07:27.286Z,88.95
2022-09-20T06:10:57.364Z,89.08
2022-09-20T06:14:23.578Z,88.69
2022-09-20T06:17:18.854Z,88.17
2022-09-20T06:20:23.881Z,87.78
2022-09-20T06:23:10.046Z,86.78
2022-09-20T06:26:13.330Z,87.65
2022-09-20T06:29:04.529Z,86.85
2022-09-20T06:31:49.761Z,86.24
2022-09-20T06:34:35.453Z,86.95
2022-09-20T06:38:17.196Z,86.61
2022-09-20T06:41:22.316Z,85.22
2022-09-20T06:44:07.600Z,84.49
2022-09-20T06:46:54.306Z,84.75
2022-09-20T06:49:42.302Z,85.42
2022-09-20T06:52:28.100Z,85.96
2022-09-20T06:55:29.033Z,86.17
2022-09-20T06:58:14.870Z,86.22
2022-09-20T07:01:00.445Z,86.56
2022-09-20T07:03:45.966Z,86.89
2022-09-20T07:06:31.086Z,87.42
2022-09-20T07:09:17.112Z,87.72
2022-09-20T07:12:02.392Z,87.71
2022-09-20T07:14:47.743Z,87.60
2022-09-20T07:17:33.820Z,87.76
2022-09-20T07:20:21.438Z,87.31
2022-09-20T07:23:06.791Z,87.12
2022-09-20T07:25:52.434Z,85.45
2022-09-20T07:28:37.920Z,85.01
2022-09-20T07:31:25.525Z,84.95
2022-09-20T07:34:11.026Z,85.25
2022-09-20T07:36:59.863Z,84.26
2022-09-20T07:39:45.859Z,84.16
2022-09-20T07:42:31.918Z,83.17
2022-09-20T07:45:18.233Z,83.62
2022-09-20T07:48:05.276Z,82.55
2022-09-20T07:50:59.079Z,81.71
2022-09-20T07:53:44.195Z,81.71
2022-09-20T07:56:29.405Z,81.91
2022-09-20T07:59:15.158Z,80.77
2022-09-20T08:02:00.694Z,80.90
2022-09-20T08:04:49.799Z,80.42
2022-09-20T08:07:35.349Z,79.77
2022-09-20T08:10:20.561Z,78.95
2022-09-20T08:16:13.342Z,77.58
2022-09-20T08:19:00.948Z,77.46
2022-09-20T08:21:46.800Z,76.72
2022-09-20T08:24:32.951Z,76.17
2022-09-20T08:27:18.393Z,75.63
2022-09-20T08:30:04.156Z,75.63
2022-09-20T08:32:49.795Z,75.36
2022-09-20T08:35:38.168Z,76.10
2022-09-20T08:41:45.941Z,76.06
2022-09-20T08:44:35.391Z,75.39
2022-09-20T08:47:44.411Z,75.28
2022-09-20T08:50:29.931Z,74.26
2022-09-20T08:53:20.975Z,74.42
2022-09-20T08:56:07.289Z,74.75
2022-09-20T08:58:54.102Z,74.72
2022-09-20T09:01:39.704Z,73.99
2022-09-20T09:04:31.184Z,73.93
2022-09-20T09:07:21.684Z,74.30
2022-09-20T09:10:08.977Z,74.62
2022-09-20T09:12:54.691Z,74.58
2022-09-20T09:15:43.599Z,72.89
2022-09-20T09:18:35.435Z,71.53
2022-09-20T09:21:24.218Z,71.88
2022-09-20T09:24:19.316Z,71.70
2022-09-20T09:27:16.774Z,71.37
2022-09-20T09:30:02.394Z,70.63
2022-09-20T09:32:49.333Z,72.26
2022-09-20T09:35:35.970Z,73.04
2022-09-20T09:38:25.850Z,72.62
2022-09-20T09:41:26.181Z,70.96
2022-09-20T09:44:24.527Z,70.19
2022-09-20T09:47:27.554Z,69.52
2022-09-20T09:50:22.859Z,69.96
2022-09-20T09:53:15.202Z,70.87
2022-09-20T09:56:42.119Z,70.50
2022-09-20T09:59:40.362Z,71.07
2022-09-20T10:02:48.191Z,72.26
2022-09-20T10:05:44.207Z,71.13
2022-09-20T10:08:44.872Z,70.15
2022-09-20T10:11:37.535Z,69.07
2022-09-20T10:14:43.192Z,67.19
2022-09-20T10:18:00.936Z,65.64
2022-09-20T10:20:59.284Z,66.29
2022-09-20T10:24:03.678Z,67.63
2022-09-20T10:27:02.165Z,68.71
2022-09-20T10:30:00.308Z,65.86
2022-09-20T10:32:51.674Z,65.68
2022-09-20T10:36:03.729Z,64.86
2022-09-20T10:39:00.647Z,67.20
2022-09-20T10:42:19.068Z,66.42
2022-09-20T10:45:59.233Z,67.50
2022-09-20T10:48:51.608Z,64.83
2022-09-20T10:51:47.524Z,65.72
2022-09-20T10:54:47.956Z,66.09
2022-09-20T10:57:51.816Z,66.13
2022-09-20T11:01:11.822Z,67.07
2022-09-20T11:04:35.154Z,67.58
2022-09-20T11:07:37.768Z,68.07
2022-09-20T11:10:31.038Z,68.76
2022-09-20T11:13:48.564Z,69.34
2022-09-20T11:16:43.285Z,71.54
2022-09-20T11:19:48.611Z,75.63
2022-09-20T11:22:48.195Z,82.57
2022-09-20T11:25:37.635Z,91.34
2022-09-20T11:28:40.103Z,96.82
2022-09-20T11:31:31.135Z,99.53
2022-09-20T11:34:25.729Z,100.00
2022-09-20T11:37:57.486Z,100.00
2022-09-20T11:40:53.589Z,100.00
2022-09-20T11:43:44.344Z,100.00
2022-09-20T11:46:40.081Z,100.00
2022-09-20T11:49:35.935Z,100.00
2022-09-20T11:52:52.893Z,100.00
2022-09-20T11:56:02.615Z,100.00
2022-09-20T11:58:51.003Z,100.00
2022-09-20T12:01:40.735Z,100.00
2022-09-20T12:04:33.935Z,100.00
2022-09-20T12:07:24.700Z,100.00
2022-09-20T12:10:30.421Z,100.00
2022-09-20T12:13:24.366Z,100.00
2022-09-20T12:16:29.693Z,100.00
2022-09-20T12:19:15.171Z,100.00
2022-09-20T12:22:00.368Z,100.00
2022-09-20T12:24:46.375Z,100.00
2022-09-20T12:27:32.576Z,100.00
2022-09-20T12:30:22.395Z,100.00
2022-09-20T12:33:20.677Z,100.00
2022-09-20T12:36:16.112Z,100.00
2022-09-20T12:39:17.595Z,100.00
2022-09-20T12:42:12.240Z,100.00
2022-09-20T12:45:00.024Z,100.00
2022-09-20T12:47:54.757Z,97.39
2022-09-20T12:50:58.614Z,96.24
2022-09-20T12:53:58.357Z,98.78
2022-09-20T12:56:46.207Z,100.00
2022-09-20T12:59:33.123Z,100.00
2022-09-20T13:03:03.756Z,98.29
2022-09-20T13:06:08.858Z,99.02
2022-09-20T13:09:07.326Z,93.39
2022-09-20T13:12:01.195Z,90.75
2022-09-20T13:14:50.652Z,93.22
2022-09-20T13:17:37.181Z,91.37
2022-09-20T13:20:26.532Z,87.15
2022-09-20T13:23:23.456Z,90.37
2022-09-20T13:26:12.937Z,89.83
2022-09-20T13:28:59.156Z,90.74
2022-09-20T13:31:44.584Z,94.57
2022-09-20T13:34:29.814Z,95.12
2022-09-20T13:37:21.667Z,91.49
2022-09-20T13:40:07.132Z,94.14
2022-09-20T13:43:12.913Z,96.67
2022-09-20T13:46:06.995Z,85.81
2022-09-20T13:48:58.899Z,90.68
2022-09-20T13:51:44.373Z,86.72
2022-09-20T13:54:31.025Z,88.04
2022-09-20T13:57:22.542Z,86.97
2022-09-20T14:00:14.600Z,85.43
2022-09-20T14:03:00.335Z,82.12
2022-09-20T14:06:00.332Z,81.75
2022-09-20T14:08:51.142Z,82.92
2022-09-20T14:11:38.216Z,79.75
2022-09-20T14:14:24.501Z,80.32
2022-09-20T14:17:15.718Z,83.61
2022-09-20T14:20:01.897Z,81.86
2022-09-20T14:22:47.219Z,78.77
2022-09-20T14:25:34.452Z,79.99
2022-09-20T14:28:20.279Z,84.87
2022-09-20T14:31:08.699Z,78.12
2022-09-20T14:33:58.339Z,85.10
2022-09-20T14:36:44.598Z,84.39
2022-09-20T14:39:30.085Z,83.08
2022-09-20T14:42:25.517Z,78.91
2022-09-20T14:45:27.951Z,76.59
2022-09-20T14:48:16.262Z,78.69
2022-09-20T14:51:22.075Z,82.59
2022-09-20T14:54:07.936Z,81.54
2022-09-20T14:56:54.724Z,77.17
2022-09-20T14:59:43.479Z,80.86
2022-09-20T15:02:29.342Z,84.28
2022-09-20T15:05:23.925Z,83.63
2022-09-20T15:08:14.576Z,79.69
2022-09-20T15:11:00.118Z,77.50
2022-09-20T15:13:46.191Z,77.16
2022-09-20T15:16:31.946Z,77.00
2022-09-20T15:19:17.020Z,78.80
2022-09-20T15:22:02.652Z,74.23
2022-09-20T15:24:47.698Z,73.73
2022-09-20T15:27:33.663Z,74.09
2022-09-20T15:30:20.201Z,75.42
2022-09-20T15:33:05.645Z,77.02
2022-09-20T15:35:51.202Z,77.88
2022-09-20T15:38:36.535Z,79.24
2022-09-20T15:41:21.905Z,82.38
2022-09-20T15:44:08.084Z,86.60
2022-09-20T15:46:53.617Z,91.09
2022-09-20T15:49:39.110Z,95.70
2022-09-20T15:52:25.472Z,98.37
2022-09-20T15:55:11.976Z,100.00
2022-09-20T15:57:57.512Z,100.00
2022-09-20T16:00:45.125Z,100.00
2022-09-20T16:03:30.721Z,100.00
2022-09-20T16:06:16.159Z,100.00
2022-09-20T16:09:01.751Z,100.00
2022-09-20T16:11:48.154Z,100.00
2022-09-20T16:14:33.300Z,100.00
2022-09-20T16:17:18.860Z,100.00
2022-09-20T16:20:04.487Z,100.00
2022-09-20T16:22:49.542Z,100.00
2022-09-20T16:25:34.941Z,100.00
2022-09-20T16:28:20.430Z,100.00
2022-09-20T16:31:05.856Z,100.00
2022-09-20T16:33:51.019Z,100.00
2022-09-20T16:36:36.327Z,100.00
2022-09-20T16:39:27.576Z,100.00
2022-09-20T16:42:13.414Z,100.00
2022-09-20T16:44:58.701Z,100.00
2022-09-20T16:47:44.096Z,100.00
2022-09-20T16:50:29.799Z,100.00
2022-09-20T16:53:15.224Z,100.00
2022-09-20T16:56:04.204Z,100.00
2022-09-20T16:58:50.617Z,100.00
2022-09-20T17:01:37.018Z,100.00
2022-09-20T17:04:23.146Z,100.00
2022-09-20T17:07:08.610Z,100.00
2022-09-20T17:10:01.124Z,100.00
2022-09-20T17:12:47.832Z,100.00
2022-09-20T17:15:32.920Z,100.00
2022-09-20T17:18:20.536Z,100.00
2022-09-20T17:21:07.303Z,100.00
2022-09-20T17:23:57.514Z,100.00
2022-09-20T17:26:45.284Z,100.00
2022-09-20T17:29:30.607Z,100.00
2022-09-20T17:32:16.081Z,100.00
2022-09-20T17:35:01.444Z,100.00
2022-09-20T17:37:46.890Z,100.00
2022-09-20T17:40:32.162Z,100.00
2022-09-20T17:43:17.789Z,100.00
2022-09-20T17:46:10.113Z,100.00
2022-09-20T17:48:58.162Z,100.00
2022-09-20T17:51:48.044Z,100.00
2022-09-20T17:54:33.800Z,100.00
2022-09-20T17:57:19.245Z,100.00
2022-09-20T18:00:04.840Z,100.00
2022-09-20T18:02:50.202Z,100.00
2022-09-20T18:05:35.302Z,100.00
2022-09-20T18:08:20.703Z,100.00
2022-09-20T18:11:06.120Z,100.00
2022-09-20T18:13:51.535Z,100.00
2022-09-20T18:16:37.507Z,100.00
2022-09-20T18:19:23.025Z,100.00
2022-09-20T18:22:08.475Z,100.00
2022-09-20T18:24:54.659Z,100.00
2022-09-20T18:27:40.101Z,100.00
2022-09-20T18:30:25.206Z,100.00
2022-09-20T18:33:10.895Z,100.00
2022-09-20T18:36:01.336Z,100.00
2022-09-20T18:38:46.843Z,100.00
2022-09-20T18:41:58.307Z,100.00
2022-09-20T18:45:24.173Z,100.00
2022-09-20T18:48:10.158Z,100.00
2022-09-20T18:51:03.950Z,100.00
2022-09-20T18:53:50.409Z,100.00
2022-09-20T18:56:37.358Z,100.00
2022-09-20T18:59:25.216Z,100.00
2022-09-20T19:02:30.685Z,100.00
2022-09-20T19:05:33.107Z,100.00
2022-09-20T19:08:34.320Z,100.00
2022-09-20T19:11:43.722Z,100.00
2022-09-20T19:15:12.549Z,100.00
2022-09-20T19:17:58.009Z,100.00
2022-09-20T19:20:56.214Z,100.00
2022-09-20T19:23:45.534Z,100.00
2022-09-20T19:26:46.171Z,100.00
2022-09-20T19:29:33.202Z,100.00
2022-09-20T19:32:21.538Z,100.00
2022-09-20T19:35:17.296Z,100.00
2022-09-20T19:38:34.246Z,100.00
2022-09-20T19:41:39.500Z,100.00
2022-09-20T19:44:40.280Z,100.00
2022-09-20T19:48:00.237Z,100.00
2022-09-20T19:50:50.665Z,100.00
2022-09-20T19:53:36.708Z,100.00
2022-09-20T19:56:27.465Z,100.00
2022-09-20T19:59:13.332Z,100.00
2022-09-20T20:01:59.384Z,100.00
2022-09-20T20:04:44.961Z,100.00
2022-09-20T20:07:42.340Z,100.00
2022-09-20T20:10:59.083Z,100.00
2022-09-20T20:14:11.914Z,100.00
2022-09-20T20:17:44.192Z,100.00
2022-09-20T20:20:38.602Z,100.00
2022-09-20T20:23:47.856Z,99.59
2022-09-20T20:26:33.187Z,99.88
2022-09-20T20:29:18.557Z,100.00
2022-09-20T20:32:04.818Z,100.00
2022-09-20T20:34:50.120Z,100.00
2022-09-20T20:37:35.713Z,100.00
2022-09-20T20:40:21.494Z,100.00
2022-09-20T20:43:09.314Z,100.00
2022-09-20T20:45:54.787Z,100.00
2022-09-20T20:48:39.990Z,100.00
2022-09-20T20:51:27.135Z,100.00
2022-09-20T20:54:12.648Z,100.00
2022-09-20T20:56:58.585Z,100.00
2022-09-20T20:59:45.202Z,100.00
2022-09-20T21:02:30.657Z,100.00
2022-09-20T21:05:15.920Z,100.00
2022-09-20T21:08:02.424Z,100.00
2022-09-20T21:10:48.583Z,100.00
2022-09-20T21:13:35.505Z,100.00
2022-09-20T21:16:28.750Z,100.00
2022-09-20T21:19:15.623Z,100.00
2022-09-20T21:22:01.116Z,100.00
2022-09-20T21:24:47.035Z,100.00
2022-09-20T21:27:36.107Z,100.00
2022-09-20T21:30:21.409Z,100.00
2022-09-20T21:33:07.018Z,100.00
2022-09-20T21:35:52.315Z,100.00
2022-09-20T21:38:38.028Z,100.00
2022-09-20T21:41:29.230Z,100.00
2022-09-20T21:44:14.912Z,100.00
2022-09-20T21:47:00.327Z,100.00
2022-09-20T21:49:47.417Z,100.00
2022-09-20T21:52:34.176Z,100.00
2022-09-20T21:55:19.354Z,100.00
2022-09-20T21:58:04.913Z,100.00
2022-09-20T22:01:12.111Z,100.00
2022-09-20T22:04:01.381Z,100.00
2022-09-20T22:06:46.947Z,100.00
2022-09-20T22:09:32.038Z,100.00
2022-09-20T22:12:17.305Z,100.00
2022-09-20T22:15:02.562Z,100.00
2022-09-20T22:17:47.815Z,100.00
2022-09-20T22:20:33.305Z,100.00
2022-09-20T22:23:18.703Z,100.00
2022-09-20T22:26:15.923Z,100.00
2022-09-20T22:29:01.926Z,100.00
2022-09-20T22:31:49.929Z,100.00
2022-09-20T22:34:35.205Z,100.00
2022-09-20T22:37:20.463Z,100.00
2022-09-20T22:40:06.250Z,100.00
2022-09-20T22:42:51.717Z,100.00
2022-09-20T22:45:37.118Z,100.00
2022-09-20T22:48:22.635Z,99.73
2022-09-20T22:51:13.611Z,99.70
2022-09-20T22:53:59.070Z,100.00
2022-09-20T22:56:44.513Z,100.00
2022-09-20T22:59:29.918Z,100.00
2022-09-20T23:02:15.218Z,99.92
2022-09-20T23:05:00.298Z,100.00
2022-09-20T23:07:48.562Z,100.00
2022-09-20T23:10:33.855Z,100.00
2022-09-20T23:13:18.657Z,100.00
2022-09-20T23:16:15.839Z,100.00
2022-09-20T23:19:02.103Z,100.00
2022-09-20T23:21:47.477Z,100.00
2022-09-20T23:24:32.665Z,100.00
2022-09-20T23:27:18.622Z,100.00
2022-09-20T23:30:04.576Z,100.00
2022-09-20T23:32:50.331Z,100.00
2022-09-20T23:35:41.854Z,100.00
2022-09-20T23:38:27.276Z,100.00
2022-09-20T23:41:14.654Z,100.00
2022-09-20T23:43:59.865Z,100.00
2022-09-20T23:47:24.177Z,100.00
2022-09-20T23:50:09.698Z,99.89
2022-09-20T23:52:54.937Z,99.96
2022-09-20T23:55:40.356Z,100.00
2022-09-20T23:58:25.715Z,100.00
